Time;durP1;ratioP1;P1;durP2;ratioP2;P2;SDS_P1;SDS_P2;PMS_P1;PMS_P2;Temp;Humidity;BMP_temperature;BMP_pressure;BME280_temperature;BME280_humidity;BME280_pressure;Samples;Min_cycle;Max_cycle;Signal;HPM_P1;HPM_P2
2022/10/23 00:01:23;;;;;;;22.17;18.38;;;;;;;;;;5071819;28;20394;-73
2022/10/23 00:03:53;;;;;;;26.98;18.92;;;;;;;;;;5055635;28;20020;-72
2022/10/23 00:06:19;;;;;;;28.67;18.70;;;;;;;;;;5073129;28;20463;-73
2022/10/23 00:08:46;;;;;;;30.13;21.85;;;;;;;;;;5054762;28;20025;-73
2022/10/23 00:11:13;;;;;;;26.25;20.48;;;;;;;;;;5072323;28;20068;-72
2022/10/23 00:13:39;;;;;;;26.00;21.80;;;;;;;;;;5055310;28;20032;-74
2022/10/23 00:16:06;;;;;;;29.73;21.98;;;;;;;;;;5072094;28;20032;-71
2022/10/23 00:18:32;;;;;;;26.98;21.23;;;;;;;;;;5066511;28;20107;-73
2022/10/23 00:20:58;;;;;;;30.02;22.08;;;;;;;;;;5072667;28;20031;-73
2022/10/23 00:23:24;;;;;;;26.58;21.80;;;;;;;;;;5044122;28;20551;-75
2022/10/23 00:25:50;;;;;;;31.85;20.35;;;;;;;;;;5072552;28;20028;-76
2022/10/23 00:28:16;;;;;;;27.48;22.02;;;;;;;;;;5072311;28;20021;-74
2022/10/23 00:30:42;;;;;;;37.67;26.60;;;;;;;;;;5072416;28;20081;-75
2022/10/23 00:33:09;;;;;;;33.05;24.42;;;;;;;;;;5072450;28;20013;-74
2022/10/23 00:35:38;;;;;;;31.10;23.50;;;;;;;;;;5069667;28;20028;-73
2022/10/23 00:38:04;;;;;;;34.45;22.90;;;;;;;;;;5071752;28;20048;-73
2022/10/23 00:40:30;;;;;;;29.52;22.85;;;;;;;;;;5070021;28;20398;-75
2022/10/23 00:42:56;;;;;;;31.83;20.42;;;;;;;;;;5072037;28;20032;-74
2022/10/23 00:45:25;;;;;;;25.63;19.52;;;;;;;;;;5054601;28;20510;-72
2022/10/23 00:47:51;;;;;;;31.27;21.30;;;;;;;;;;5072699;28;20017;-71
2022/10/23 00:50:18;;;;;;;30.73;22.45;;;;;;;;;;5072783;28;20102;-73
2022/10/23 00:52:50;;;;;;;26.52;19.65;;;;;;;;;;5071049;28;20028;-72
2022/10/23 00:55:17;;;;;;;23.23;17.75;;;;;;;;;;5068028;28;20103;-73
2022/10/23 00:57:44;;;;;;;26.30;17.85;;;;;;;;;;5068974;28;20040;-74
2022/10/23 01:00:13;;;;;;;23.05;16.63;;;;;;;;;;5072763;28;20371;-72
2022/10/23 01:02:39;;;;;;;25.77;18.70;;;;;;;;;;5062260;28;20020;-72
2022/10/23 01:05:07;;;;;;;25.52;19.80;;;;;;;;;;5072450;28;20021;-72
2022/10/23 01:07:37;;;;;;;22.67;19.00;;;;;;;;;;5070391;28;20487;-72
2022/10/23 01:10:03;;;;;;;29.60;20.75;;;;;;;;;;5063782;28;20040;-71
2022/10/23 01:12:38;;;;;;;26.27;20.02;;;;;;;;;;5072484;28;20028;-73
2022/10/23 01:15:04;;;;;;;25.58;19.13;;;;;;;;;;5067102;28;20116;-73
2022/10/23 01:17:42;;;;;;;25.30;18.60;;;;;;;;;;5072419;28;20040;-73
2022/10/23 01:20:31;;;;;;;27.58;19.58;;;;;;;;;;5069212;28;20082;-73
2022/10/23 01:23:16;;;;;;;24.63;20.48;;;;;;;;;;5051178;28;20021;-72
2022/10/23 01:25:51;;;;;;;28.00;19.75;;;;;;;;;;5069475;28;20457;-73
2022/10/23 01:28:25;;;;;;;23.27;18.90;;;;;;;;;;5073828;28;20031;-71
2022/10/23 01:30:53;;;;;;;24.80;18.13;;;;;;;;;;5075949;28;20159;-70
2022/10/23 01:33:25;;;;;;;23.20;15.85;;;;;;;;;;5076728;28;20016;-72
2022/10/23 01:36:02;;;;;;;17.30;14.07;;;;;;;;;;5076016;28;20525;-78
2022/10/23 01:38:35;;;;;;;18.15;13.70;;;;;;;;;;5075870;28;20033;-75
2022/10/23 01:41:11;;;;;;;16.23;12.82;;;;;;;;;;5076114;28;20360;-70
2022/10/23 01:43:43;;;;;;;17.75;12.00;;;;;;;;;;5070515;28;20029;-72
2022/10/23 01:46:13;;;;;;;17.67;12.70;;;;;;;;;;5055879;28;20115;-72
2022/10/23 01:48:41;;;;;;;15.70;12.10;;;;;;;;;;5061254;28;20029;-75
2022/10/23 01:51:08;;;;;;;19.88;14.05;;;;;;;;;;5071942;28;20048;-71
2022/10/23 01:53:37;;;;;;;16.63;12.05;;;;;;;;;;5075818;28;20033;-73
2022/10/23 01:56:05;;;;;;;17.00;11.80;;;;;;;;;;5069533;28;20033;-72
2022/10/23 01:58:34;;;;;;;15.68;11.50;;;;;;;;;;5055420;28;20041;-73
2022/10/23 02:01:03;;;;;;;15.57;11.88;;;;;;;;;;5075075;28;20033;-73
2022/10/23 02:03:31;;;;;;;15.65;12.07;;;;;;;;;;5074700;28;20078;-73
2022/10/23 02:05:57;;;;;;;14.15;11.93;;;;;;;;;;5075021;28;20032;-76
2022/10/23 02:08:24;;;;;;;13.18;10.82;;;;;;;;;;5073184;28;20032;-74
2022/10/23 02:11:16;;;;;;;14.35;11.40;;;;;;;;;;5066837;28;20052;-72
2022/10/23 02:13:54;;;;;;;16.67;11.57;;;;;;;;;;5059895;28;20043;-72
2022/10/23 02:16:29;;;;;;;18.27;13.57;;;;;;;;;;5075173;28;20029;-74
2022/10/23 02:19:15;;;;;;;18.88;12.32;;;;;;;;;;5075614;28;20045;-74
2022/10/23 02:22:00;;;;;;;20.45;10.73;;;;;;;;;;5058309;28;20043;-73
2022/10/23 02:24:38;;;;;;;13.00;10.45;;;;;;;;;;5075458;28;20028;-72
2022/10/23 02:27:08;;;;;;;13.60;10.45;;;;;;;;;;5075021;28;20020;-74
2022/10/23 02:29:37;;;;;;;12.02;9.82;;;;;;;;;;5074458;28;20028;-74
2022/10/23 02:32:04;;;;;;;16.25;12.40;;;;;;;;;;5056446;28;20482;-75
2022/10/23 02:34:30;;;;;;;15.98;12.52;;;;;;;;;;5074896;28;20048;-76
2022/10/23 02:36:56;;;;;;;14.57;9.98;;;;;;;;;;5074406;28;20028;-75
2022/10/23 02:39:23;;;;;;;15.70;9.43;;;;;;;;;;5073344;28;20032;-76
2022/10/23 02:41:54;;;;;;;10.40;8.95;;;;;;;;;;5071487;28;20396;-76
2022/10/23 02:44:27;;;;;;;8.98;6.47;;;;;;;;;;5073597;28;20020;-75
2022/10/23 02:47:09;;;;;;;11.88;9.77;;;;;;;;;;5074830;28;20021;-75
2022/10/23 02:49:35;;;;;;;13.02;8.88;;;;;;;;;;5074920;28;20025;-76
2022/10/23 02:52:21;;;;;;;14.23;10.23;;;;;;;;;;5071192;28;20023;-76
2022/10/23 02:54:53;;;;;;;14.90;10.80;;;;;;;;;;5053705;28;20033;-74
2022/10/23 02:57:19;;;;;;;13.88;9.73;;;;;;;;;;5074347;28;20028;-74
2022/10/23 02:59:50;;;;;;;11.10;8.85;;;;;;;;;;5074440;28;20019;-73
2022/10/23 03:02:16;;;;;;;12.03;8.77;;;;;;;;;;5074181;28;20055;-79
2022/10/23 03:04:42;;;;;;;12.35;8.57;;;;;;;;;;5074294;28;20052;-74
2022/10/23 03:07:12;;;;;;;12.63;9.35;;;;;;;;;;5065461;28;20121;-77
2022/10/23 03:09:38;;;;;;;11.18;9.38;;;;;;;;;;5073989;28;20048;-74
2022/10/23 03:12:04;;;;;;;12.00;9.68;;;;;;;;;;5074431;28;20115;-74
2022/10/23 03:14:30;;;;;;;13.98;8.80;;;;;;;;;;5074530;28;20017;-75
2022/10/23 03:16:56;;;;;;;12.02;9.68;;;;;;;;;;5073852;28;20389;-73
2022/10/23 03:19:23;;;;;;;13.20;9.63;;;;;;;;;;5074078;28;20090;-73
2022/10/23 03:21:49;;;;;;;14.10;9.85;;;;;;;;;;5073750;28;20074;-72
2022/10/23 03:24:15;;;;;;;14.48;8.68;;;;;;;;;;5055764;28;20112;-74
2022/10/23 03:26:41;;;;;;;12.40;9.88;;;;;;;;;;5073573;28;20017;-74
2022/10/23 03:29:07;;;;;;;10.00;8.80;;;;;;;;;;5073953;28;20090;-74
2022/10/23 03:31:33;;;;;;;12.73;9.27;;;;;;;;;;5073681;28;20016;-74
2022/10/23 03:33:59;;;;;;;11.00;8.05;;;;;;;;;;5065889;28;20028;-74
2022/10/23 03:36:25;;;;;;;11.93;8.25;;;;;;;;;;5070462;28;20067;-74
2022/10/23 03:38:51;;;;;;;10.52;8.13;;;;;;;;;;5073781;28;20025;-76
2022/10/23 03:41:17;;;;;;;18.25;12.95;;;;;;;;;;5073292;28;20056;-75
2022/10/23 03:43:43;;;;;;;12.27;9.45;;;;;;;;;;5074076;28;20074;-76
2022/10/23 03:46:11;;;;;;;12.30;9.15;;;;;;;;;;5052143;28;20036;-74
2022/10/23 03:48:38;;;;;;;11.25;8.75;;;;;;;;;;5072149;28;20028;-74
2022/10/23 03:51:07;;;;;;;12.02;9.10;;;;;;;;;;5072894;28;20025;-75
2022/10/23 03:53:33;;;;;;;9.98;7.07;;;;;;;;;;5067708;28;20489;-77
2022/10/23 03:55:59;;;;;;;9.90;7.45;;;;;;;;;;5066228;28;20597;-73
2022/10/23 03:58:26;;;;;;;8.55;7.18;;;;;;;;;;5072341;28;20344;-74
2022/10/23 04:00:52;;;;;;;14.15;7.95;;;;;;;;;;5066206;28;20122;-72
2022/10/23 04:03:18;;;;;;;10.85;8.60;;;;;;;;;;5073139;28;20025;-72
2022/10/23 04:05:44;;;;;;;9.85;8.50;;;;;;;;;;5072946;28;20481;-74
2022/10/23 04:08:10;;;;;;;9.77;7.70;;;;;;;;;;5072108;28;20029;-75
2022/10/23 04:10:36;;;;;;;12.02;8.75;;;;;;;;;;5073092;28;20044;-75
2022/10/23 04:13:02;;;;;;;12.32;9.23;;;;;;;;;;5073022;28;20103;-73
2022/10/23 04:15:28;;;;;;;11.30;7.88;;;;;;;;;;5073355;28;20478;-74
2022/10/23 04:17:54;;;;;;;11.00;8.32;;;;;;;;;;5073099;28;20379;-74
2022/10/23 04:20:20;;;;;;;12.82;10.88;;;;;;;;;;5073520;28;20534;-74
2022/10/23 04:22:46;;;;;;;9.90;8.38;;;;;;;;;;5072983;28;20521;-76
2022/10/23 04:25:12;;;;;;;11.93;8.23;;;;;;;;;;5072698;28;20473;-72
2022/10/23 04:27:38;;;;;;;10.38;7.47;;;;;;;;;;5072089;28;20035;-72
2022/10/23 04:30:05;;;;;;;9.70;7.63;;;;;;;;;;5072635;28;20031;-74
2022/10/23 04:32:31;;;;;;;10.05;8.63;;;;;;;;;;5064821;28;20050;-73
2022/10/23 04:34:57;;;;;;;13.50;8.20;;;;;;;;;;5071487;28;20029;-73
2022/10/23 04:37:23;;;;;;;13.57;9.73;;;;;;;;;;5071336;28;20482;-73
2022/10/23 04:39:49;;;;;;;9.57;7.32;;;;;;;;;;5073142;28;20071;-74
2022/10/23 04:42:15;;;;;;;11.32;8.77;;;;;;;;;;5072496;28;20087;-75
2022/10/23 04:44:41;;;;;;;13.30;9.80;;;;;;;;;;5071510;28;20020;-75
2022/10/23 04:47:07;;;;;;;12.90;8.98;;;;;;;;;;5072630;28;20059;-74
2022/10/23 04:49:33;;;;;;;11.35;8.45;;;;;;;;;;5072707;28;20024;-77
2022/10/23 04:51:59;;;;;;;11.50;7.72;;;;;;;;;;5070519;28;20041;-75
2022/10/23 04:54:25;;;;;;;11.73;7.85;;;;;;;;;;5066667;28;20452;-75
2022/10/23 04:56:51;;;;;;;10.32;7.72;;;;;;;;;;5072126;28;20038;-74
2022/10/23 04:59:17;;;;;;;11.93;8.15;;;;;;;;;;5055161;28;20031;-78
2022/10/23 05:01:43;;;;;;;9.60;8.00;;;;;;;;;;5072619;28;20032;-76
2022/10/23 05:04:10;;;;;;;15.25;9.70;;;;;;;;;;5072512;28;20062;-76
2022/10/23 05:06:36;;;;;;;11.35;9.02;;;;;;;;;;5072627;28;20021;-77
2022/10/23 05:09:02;;;;;;;15.38;10.73;;;;;;;;;;5070627;28;20143;-75
2022/10/23 05:11:28;;;;;;;21.67;12.55;;;;;;;;;;5072202;28;20410;-76
2022/10/23 05:13:54;;;;;;;23.20;17.15;;;;;;;;;;5068709;28;20107;-80
2022/10/23 05:16:27;;;;;;;21.27;14.80;;;;;;;;;;5067830;28;20035;-73
2022/10/23 05:18:53;;;;;;;16.83;12.73;;;;;;;;;;5071859;28;20024;-76
2022/10/23 05:21:21;;;;;;;14.80;10.77;;;;;;;;;;5072017;28;20016;-77
2022/10/23 05:23:47;;;;;;;21.63;14.20;;;;;;;;;;5071866;28;20020;-73
2022/10/23 05:26:13;;;;;;;13.55;10.63;;;;;;;;;;5071468;28;20032;-74
2022/10/23 05:28:39;;;;;;;14.75;9.60;;;;;;;;;;5072468;28;20103;-75
2022/10/23 05:31:06;;;;;;;12.25;9.57;;;;;;;;;;5071981;28;20024;-76
2022/10/23 05:33:32;;;;;;;21.38;11.85;;;;;;;;;;5071180;28;20026;-73
2022/10/23 05:35:59;;;;;;;18.33;12.70;;;;;;;;;;5064745;28;20033;-75
2022/10/23 05:38:27;;;;;;;26.08;15.98;;;;;;;;;;5072420;28;20458;-75
2022/10/23 05:40:53;;;;;;;25.77;18.50;;;;;;;;;;5063547;28;20494;-73
2022/10/23 05:43:19;;;;;;;17.95;13.90;;;;;;;;;;5072029;28;20023;-74
2022/10/23 05:45:46;;;;;;;20.05;14.65;;;;;;;;;;5072133;28;20031;-74
2022/10/23 05:48:14;;;;;;;20.98;14.35;;;;;;;;;;5072104;28;20024;-74
2022/10/23 05:50:40;;;;;;;29.00;18.90;;;;;;;;;;5072262;28;20020;-74
2022/10/23 05:53:06;;;;;;;16.02;13.38;;;;;;;;;;5071818;28;20056;-73
2022/10/23 05:55:33;;;;;;;19.60;12.13;;;;;;;;;;5071939;28;20385;-73
2022/10/23 05:58:01;;;;;;;20.13;13.98;;;;;;;;;;5052744;28;20040;-73
2022/10/23 06:00:28;;;;;;;34.20;24.70;;;;;;;;;;5071870;28;20013;-72
2022/10/23 06:02:54;;;;;;;52.28;37.08;;;;;;;;;;5068637;28;20064;-73
2022/10/23 06:05:20;;;;;;;24.85;15.32;;;;;;;;;;5071988;28;20074;-74
2022/10/23 06:07:46;;;;;;;14.80;11.00;;;;;;;;;;5072145;28;20036;-74
2022/10/23 06:10:12;;;;;;;18.58;11.63;;;;;;;;;;5071735;28;20055;-73
2022/10/23 06:12:38;;;;;;;36.28;22.00;;;;;;;;;;5071812;28;20021;-73
2022/10/23 06:15:05;;;;;;;39.05;27.15;;;;;;;;;;5072549;28;20078;-75
2022/10/23 06:17:31;;;;;;;30.08;20.65;;;;;;;;;;5075292;28;20096;-74
2022/10/23 06:20:01;;;;;;;22.35;17.50;;;;;;;;;;5075270;28;20024;-74
2022/10/23 06:22:27;;;;;;;24.35;18.48;;;;;;;;;;5075310;28;20069;-74
2022/10/23 06:24:53;;;;;;;31.08;19.77;;;;;;;;;;5056955;28;20020;-73
2022/10/23 06:27:19;;;;;;;34.75;23.17;;;;;;;;;;5074997;28;20063;-72
2022/10/23 06:29:46;;;;;;;33.80;19.85;;;;;;;;;;5075262;28;20021;-74
2022/10/23 06:32:12;;;;;;;34.45;22.92;;;;;;;;;;5074919;28;20077;-74
2022/10/23 06:34:38;;;;;;;33.08;19.42;;;;;;;;;;5075240;28;20027;-75
2022/10/23 06:37:04;;;;;;;26.95;19.13;;;;;;;;;;5074641;28;20029;-73
2022/10/23 06:39:30;;;;;;;33.30;17.70;;;;;;;;;;5074582;28;20031;-73
2022/10/23 06:41:56;;;;;;;38.30;19.33;;;;;;;;;;5071647;28;20112;-74
2022/10/23 06:44:22;;;;;;;36.80;20.33;;;;;;;;;;5046685;28;20498;-73
2022/10/23 06:46:48;;;;;;;21.08;16.10;;;;;;;;;;5074452;28;20031;-74
2022/10/23 06:49:15;;;;;;;21.35;16.08;;;;;;;;;;5074468;28;20024;-74
2022/10/23 06:51:41;;;;;;;20.67;15.27;;;;;;;;;;5074431;28;20455;-73
2022/10/23 06:54:08;;;;;;;17.85;12.93;;;;;;;;;;5074319;28;20482;-73
2022/10/23 06:56:34;;;;;;;16.90;12.40;;;;;;;;;;5073858;28;20036;-73
2022/10/23 06:59:01;;;;;;;31.55;20.55;;;;;;;;;;5074230;28;20592;-74
2022/10/23 07:01:27;;;;;;;25.33;19.08;;;;;;;;;;5074200;28;20020;-77
2022/10/23 07:03:53;;;;;;;22.88;16.17;;;;;;;;;;5074004;28;20047;-73
2022/10/23 07:06:19;;;;;;;31.98;16.33;;;;;;;;;;5055960;28;20375;-73
2022/10/23 07:08:45;;;;;;;23.90;15.60;;;;;;;;;;5074159;28;20029;-73
2022/10/23 07:11:11;;;;;;;28.40;16.27;;;;;;;;;;5073882;28;20537;-72
2022/10/23 07:13:38;;;;;;;21.30;14.93;;;;;;;;;;5073985;28;20025;-76
2022/10/23 07:16:15;;;;;;;23.25;15.40;;;;;;;;;;5073552;28;20086;-73
2022/10/23 07:18:41;;;;;;;20.52;13.07;;;;;;;;;;5074194;28;20089;-73
2022/10/23 07:21:08;;;;;;;22.70;14.85;;;;;;;;;;5070443;28;20020;-73
2022/10/23 07:23:34;;;;;;;20.13;12.25;;;;;;;;;;5074281;28;20025;-73
2022/10/23 07:26:04;;;;;;;30.70;17.60;;;;;;;;;;5073360;28;20029;-74
2022/10/23 07:28:30;;;;;;;38.75;21.23;;;;;;;;;;5074405;28;20064;-78
2022/10/23 07:30:57;;;;;;;26.77;21.45;;;;;;;;;;5073796;28;20028;-73
2022/10/23 07:33:23;;;;;;;14.48;11.57;;;;;;;;;;5072724;28;20535;-74
2022/10/23 07:35:49;;;;;;;22.38;12.23;;;;;;;;;;5066929;28;20565;-76
2022/10/23 07:38:16;;;;;;;14.02;10.15;;;;;;;;;;5073621;28;20016;-75
2022/10/23 07:40:42;;;;;;;45.03;32.80;;;;;;;;;;5072144;28;20040;-76
2022/10/23 07:43:08;;;;;;;11.88;10.30;;;;;;;;;;5073733;28;20102;-76
2022/10/23 07:45:34;;;;;;;18.98;12.20;;;;;;;;;;5055418;28;20016;-75
2022/10/23 07:48:01;;;;;;;13.13;10.70;;;;;;;;;;5073805;28;20028;-73
2022/10/23 07:50:27;;;;;;;17.90;11.15;;;;;;;;;;5073736;28;20025;-74
2022/10/23 07:52:53;;;;;;;28.98;21.95;;;;;;;;;;5073757;28;20029;-72
2022/10/23 07:55:19;;;;;;;18.95;12.05;;;;;;;;;;5071308;28;20035;-73
2022/10/23 07:57:45;;;;;;;23.88;14.63;;;;;;;;;;5067624;28;20035;-76
2022/10/23 08:00:11;;;;;;;19.67;12.45;;;;;;;;;;5073163;28;20092;-78
2022/10/23 08:02:37;;;;;;;16.50;12.45;;;;;;;;;;5070805;28;20111;-74
2022/10/23 08:05:03;;;;;;;22.35;13.57;;;;;;;;;;5071922;28;20050;-76
2022/10/23 08:07:29;;;;;;;82.97;60.90;;;;;;;;;;5066268;28;20033;-74
2022/10/23 08:09:56;;;;;;;44.85;35.17;;;;;;;;;;5072902;28;20072;-76
2022/10/23 08:12:22;;;;;;;33.63;23.60;;;;;;;;;;5054855;28;20517;-77
2022/10/23 08:14:48;;;;;;;22.98;16.38;;;;;;;;;;5072843;28;20463;-76
2022/10/23 08:17:14;;;;;;;13.85;9.60;;;;;;;;;;5071872;28;20077;-77
2022/10/23 08:19:45;;;;;;;28.50;19.08;;;;;;;;;;5069760;28;20444;-75
2022/10/23 08:22:11;;;;;;;24.45;14.63;;;;;;;;;;5067721;28;20040;-77
2022/10/23 08:24:37;;;;;;;72.78;50.05;;;;;;;;;;5072778;28;20020;-76
2022/10/23 08:27:03;;;;;;;17.20;13.63;;;;;;;;;;5071994;28;20017;-77
2022/10/23 08:29:29;;;;;;;28.70;19.63;;;;;;;;;;5072446;28;20020;-79
2022/10/23 08:31:56;;;;;;;13.48;10.38;;;;;;;;;;5069764;28;20036;-77
2022/10/23 08:34:22;;;;;;;16.63;13.25;;;;;;;;;;5072664;28;20028;-78
2022/10/23 08:36:48;;;;;;;30.33;23.40;;;;;;;;;;5072548;28;20384;-75
2022/10/23 08:39:15;;;;;;;24.30;17.35;;;;;;;;;;5071771;28;20031;-74
2022/10/23 08:41:42;;;;;;;18.77;13.15;;;;;;;;;;5071961;28;20453;-74
2022/10/23 08:44:13;;;;;;;17.05;11.35;;;;;;;;;;5072350;28;20027;-74
2022/10/23 08:46:41;;;;;;;25.20;11.60;;;;;;;;;;5071813;28;20470;-74
2022/10/23 08:49:07;;;;;;;10.43;8.40;;;;;;;;;;5066512;28;20021;-74
2022/10/23 08:51:44;;;;;;;14.82;9.27;;;;;;;;;;5070030;28;20386;-73
2022/10/23 08:54:43;;;;;;;27.15;20.13;;;;;;;;;;5070469;28;20036;-74
2022/10/23 08:57:12;;;;;;;11.45;9.77;;;;;;;;;;4990382;28;20129;-73
2022/10/23 08:59:43;;;;;;;172.70;143.27;;;;;;;;;;4991087;28;20031;-77
2022/10/23 09:02:10;;;;;;;;;;;;;;;;;;4991193;28;20081;-73
2022/10/23 09:04:36;;;;;;;56.17;43.72;;;;;;;;;;4988839;28;19906;-76
2022/10/23 09:07:34;;;;;;;28.40;18.80;;;;;;;;;;4983903;28;20045;-73
2022/10/23 09:10:00;;;;;;;36.67;23.60;;;;;;;;;;4909214;29;20048;-72
2022/10/23 09:12:28;;;;;;;17.42;13.02;;;;;;;;;;4913753;29;20107;-77
2022/10/23 09:15:03;;;;;;;21.35;17.00;;;;;;;;;;4911707;29;20545;-74
2022/10/23 09:17:34;;;;;;;11.55;7.10;;;;;;;;;;4912886;29;20040;-73
2022/10/23 09:20:19;;;;;;;101.05;83.18;;;;;;;;;;4914166;29;20167;-73
2022/10/23 09:22:46;;;;;;;22.13;15.52;;;;;;;;;;4914517;29;20032;-72
2022/10/23 09:25:17;;;;;;;8.93;7.13;;;;;;;;;;4914050;29;20032;-72
2022/10/23 09:27:51;;;;;;;15.65;12.98;;;;;;;;;;4914005;29;20028;-73
2022/10/23 09:30:40;;;;;;;22.90;16.25;;;;;;;;;;4913064;29;20034;-73
2022/10/23 09:33:18;;;;;;;11.88;7.65;;;;;;;;;;4876300;29;20051;-72
2022/10/23 09:35:53;;;;;;;42.33;34.05;;;;;;;;;;4894680;29;20084;-72
2022/10/23 09:38:26;;;;;;;9.45;6.88;;;;;;;;;;4894540;29;20558;-73
2022/10/23 09:40:52;;;;;;;38.50;27.15;;;;;;;;;;4890790;29;20041;-72
2022/10/23 09:43:24;;;;;;;16.48;11.00;;;;;;;;;;4892102;29;20567;-72
2022/10/23 09:46:01;;;;;;;26.73;22.08;;;;;;;;;;4918175;29;20067;-75
2022/10/23 09:48:28;;;;;;;13.10;9.70;;;;;;;;;;4951950;28;20027;-73
2022/10/23 09:50:58;;;;;;;19.67;13.75;;;;;;;;;;4938327;29;20041;-74
2022/10/23 09:53:24;;;;;;;8.75;6.03;;;;;;;;;;4969141;28;20034;-73
2022/10/23 09:55:52;;;;;;;10.18;6.10;;;;;;;;;;4955580;29;20114;-72
2022/10/23 09:58:30;;;;;;;24.58;20.92;;;;;;;;;;4952906;29;20118;-77
2022/10/23 10:00:56;;;;;;;48.40;40.30;;;;;;;;;;4955206;29;20449;-77
2022/10/23 10:03:23;;;;;;;7.05;5.70;;;;;;;;;;4955324;29;20070;-71
2022/10/23 10:05:54;;;;;;;8.20;6.35;;;;;;;;;;4955268;29;20023;-73
2022/10/23 10:08:34;;;;;;;7.45;6.45;;;;;;;;;;4954869;29;20555;-72
2022/10/23 10:11:02;;;;;;;25.80;23.10;;;;;;;;;;5052600;28;20110;-72
2022/10/23 10:13:38;;;;;;;6.55;5.03;;;;;;;;;;5056576;28;20040;-73
2022/10/23 10:16:07;;;;;;;63.42;56.50;;;;;;;;;;5074326;28;20028;-72
2022/10/23 10:18:34;;;;;;;60.10;53.60;;;;;;;;;;5055359;28;20492;-73
2022/10/23 10:21:18;;;;;;;15.88;11.10;;;;;;;;;;5075317;28;20058;-78
2022/10/23 10:23:50;;;;;;;17.00;12.68;;;;;;;;;;5074646;28;20060;-75
2022/10/23 10:26:35;;;;;;;29.48;26.35;;;;;;;;;;5073803;28;20028;-73
2022/10/23 10:29:24;;;;;;;25.27;20.55;;;;;;;;;;5055241;28;20549;-73
2022/10/23 10:31:59;;;;;;;35.55;31.77;;;;;;;;;;5056493;28;20038;-79
2022/10/23 10:34:44;;;;;;;10.45;8.80;;;;;;;;;;5056400;28;20029;-80
2022/10/23 10:37:19;;;;;;;10.07;9.07;;;;;;;;;;5074149;28;20115;-74
2022/10/23 10:39:54;;;;;;;5.25;4.72;;;;;;;;;;5062376;28;20107;-71
2022/10/23 10:42:29;;;;;;;32.38;28.88;;;;;;;;;;5074581;28;20025;-72
2022/10/23 10:45:14;;;;;;;10.65;6.32;;;;;;;;;;5074903;28;20410;-73
2022/10/23 10:47:43;;;;;;;32.25;28.92;;;;;;;;;;5072312;28;20028;-73
2022/10/23 10:50:15;;;;;;;18.67;15.13;;;;;;;;;;5070080;28;20025;-73
2022/10/23 10:52:49;;;;;;;10.00;8.88;;;;;;;;;;5074731;28;20013;-72
2022/10/23 10:55:22;;;;;;;10.65;8.43;;;;;;;;;;5074668;28;20031;-74
2022/10/23 10:57:51;;;;;;;5.90;4.22;;;;;;;;;;5074673;28;20050;-73
2022/10/23 11:00:19;;;;;;;52.92;47.65;;;;;;;;;;5067018;28;20050;-75
2022/10/23 11:02:47;;;;;;;36.38;32.70;;;;;;;;;;5071915;28;20040;-74
2022/10/23 11:05:27;;;;;;;21.25;17.63;;;;;;;;;;5074589;28;20064;-72
2022/10/23 11:08:12;;;;;;;24.13;20.20;;;;;;;;;;5074675;28;20028;-72
2022/10/23 11:10:44;;;;;;;18.85;16.83;;;;;;;;;;5074325;28;20106;-72
2022/10/23 11:13:36;;;;;;;43.08;38.50;;;;;;;;;;5074191;28;20055;-73
2022/10/23 11:16:23;;;;;;;84.88;75.68;;;;;;;;;;5069792;28;20050;-75
2022/10/23 11:19:07;;;;;;;7.55;5.68;;;;;;;;;;5063828;28;20115;-73
2022/10/23 11:21:37;;;;;;;23.48;20.17;;;;;;;;;;5074052;28;20025;-73
2022/10/23 11:24:16;;;;;;;20.42;14.32;;;;;;;;;;5067709;28;20028;-73
2022/10/23 11:26:52;;;;;;;15.60;10.93;;;;;;;;;;5052337;28;20024;-72
2022/10/23 11:29:32;;;;;;;12.40;8.77;;;;;;;;;;5068365;28;20027;-74
2022/10/23 11:32:17;;;;;;;55.20;41.03;;;;;;;;;;5069282;28;20029;-72
2022/10/23 11:34:43;;;;;;;10.25;8.02;;;;;;;;;;5073870;28;20402;-73
2022/10/23 11:37:09;;;;;;;35.40;26.65;;;;;;;;;;5073759;28;20036;-71
2022/10/23 11:39:38;;;;;;;11.75;8.02;;;;;;;;;;5073041;28;20046;-71
2022/10/23 11:42:04;;;;;;;7.85;4.05;;;;;;;;;;5073201;28;20033;-72
2022/10/23 11:44:49;;;;;;;27.48;22.33;;;;;;;;;;5073557;28;20050;-71
2022/10/23 11:47:25;;;;;;;15.25;12.00;;;;;;;;;;5072965;28;20021;-74
2022/10/23 11:49:52;;;;;;;6.15;4.60;;;;;;;;;;5059970;28;20028;-74
2022/10/23 11:52:22;;;;;;;16.75;13.02;;;;;;;;;;5072371;28;20027;-72
2022/10/23 11:54:48;;;;;;;30.92;23.58;;;;;;;;;;5073512;28;20031;-74
2022/10/23 11:57:16;;;;;;;91.82;77.88;;;;;;;;;;5073856;28;20081;-74
2022/10/23 11:59:45;;;;;;;179.75;158.02;;;;;;;;;;5074141;28;20028;-73
2022/10/23 12:02:26;;;;;;;9.65;8.65;;;;;;;;;;5073363;28;20052;-73
2022/10/23 12:04:53;;;;;;;103.20;91.85;;;;;;;;;;5073397;28;20056;-74
2022/10/23 12:07:24;;;;;;;6.85;4.57;;;;;;;;;;5073193;28;20044;-74
2022/10/23 12:09:53;;;;;;;74.10;62.72;;;;;;;;;;5052114;28;20427;-74
2022/10/23 12:12:28;;;;;;;32.28;26.58;;;;;;;;;;5048301;28;20751;-77
2022/10/23 12:15:06;;;;;;;10.88;7.65;;;;;;;;;;5046898;28;20029;-73
2022/10/23 12:17:34;;;;;;;9.38;6.55;;;;;;;;;;5052652;28;20447;-72
2022/10/23 12:20:03;;;;;;;16.98;8.85;;;;;;;;;;5052846;28;20032;-77
2022/10/23 12:22:53;;;;;;;87.78;78.07;;;;;;;;;;5052875;28;20104;-72
2022/10/23 12:25:42;;;;;;;20.90;16.67;;;;;;;;;;5011108;28;20065;-72
2022/10/23 12:28:11;;;;;;;27.25;24.13;;;;;;;;;;4999803;28;20030;-75
2022/10/23 12:30:56;;;;;;;57.67;44.92;;;;;;;;;;5011022;28;20096;-73
2022/10/23 12:33:31;;;;;;;22.08;18.25;;;;;;;;;;5011751;28;20481;-73
2022/10/23 12:35:57;;;;;;;14.55;12.40;;;;;;;;;;5010931;28;20054;-78
2022/10/23 12:38:29;;;;;;;43.72;38.97;;;;;;;;;;5010587;28;20575;-77
2022/10/23 12:41:18;;;;;;;9.60;8.27;;;;;;;;;;5010598;28;20037;-72
2022/10/23 12:43:50;;;;;;;72.63;64.57;;;;;;;;;;5010619;28;20034;-74
2022/10/23 12:46:25;;;;;;;9.73;8.13;;;;;;;;;;5010855;28;20380;-73
2022/10/23 12:48:52;;;;;;;20.52;17.63;;;;;;;;;;5010843;28;20038;-75
2022/10/23 12:51:25;;;;;;;92.53;82.88;;;;;;;;;;5010909;28;20088;-73
2022/10/23 12:53:51;;;;;;;13.70;11.80;;;;;;;;;;5010907;28;20096;-74
2022/10/23 12:56:18;;;;;;;13.52;10.35;;;;;;;;;;5006481;28;20050;-74
2022/10/23 12:58:49;;;;;;;26.92;23.98;;;;;;;;;;5007337;28;20061;-75
2022/10/23 13:01:23;;;;;;;15.25;12.77;;;;;;;;;;5013607;28;20034;-74
2022/10/23 13:03:49;;;;;;;6.82;5.22;;;;;;;;;;5052256;28;20028;-75
2022/10/23 13:06:15;;;;;;;27.33;21.80;;;;;;;;;;5050985;28;20033;-75
2022/10/23 13:08:43;;;;;;;22.13;17.88;;;;;;;;;;5051041;28;20167;-76
2022/10/23 13:11:14;;;;;;;50.10;44.70;;;;;;;;;;5066670;28;20441;-75
2022/10/23 13:13:40;;;;;;;18.88;16.63;;;;;;;;;;5072294;28;20024;-75
2022/10/23 13:16:14;;;;;;;27.02;23.63;;;;;;;;;;5072401;28;20039;-72
2022/10/23 13:18:41;;;;;;;50.50;40.83;;;;;;;;;;5072321;28;20466;-72
2022/10/23 13:21:16;;;;;;;34.92;29.48;;;;;;;;;;5071409;28;20032;-75
2022/10/23 13:23:42;;;;;;;16.70;10.00;;;;;;;;;;5054082;28;20084;-77
2022/10/23 13:26:20;;;;;;;26.98;24.00;;;;;;;;;;5074280;28;20074;-74
2022/10/23 13:28:47;;;;;;;112.78;100.25;;;;;;;;;;5076592;28;20025;-75
2022/10/23 13:31:13;;;;;;;50.22;44.80;;;;;;;;;;5076282;28;20055;-75
2022/10/23 13:33:43;;;;;;;192.23;172.25;;;;;;;;;;5076407;28;20032;-76
2022/10/23 13:36:12;;;;;;;51.90;45.90;;;;;;;;;;5055809;28;20052;-77
2022/10/23 13:38:57;;;;;;;199.52;178.40;;;;;;;;;;5071840;28;20052;-79
2022/10/23 13:41:23;;;;;;;55.20;47.80;;;;;;;;;;5075800;28;20095;-76
2022/10/23 13:43:49;;;;;;;17.35;15.55;;;;;;;;;;5075326;28;20024;-75
2022/10/23 13:46:16;;;;;;;18.90;11.85;;;;;;;;;;5074096;28;20028;-76
2022/10/23 13:48:42;;;;;;;73.88;63.78;;;;;;;;;;5070321;28;20048;-76
2022/10/23 13:51:14;;;;;;;11.95;9.90;;;;;;;;;;5075614;28;20560;-76
2022/10/23 13:53:40;;;;;;;38.15;32.63;;;;;;;;;;5075001;28;20025;-75
2022/10/23 13:56:06;;;;;;;19.25;16.90;;;;;;;;;;5073768;28;20132;-75
2022/10/23 13:58:32;;;;;;;13.52;10.43;;;;;;;;;;5069222;28;20487;-75
2022/10/23 14:00:59;;;;;;;12.68;9.20;;;;;;;;;;5055359;28;20393;-74
2022/10/23 14:03:25;;;;;;;12.48;8.68;;;;;;;;;;5075010;28;20012;-74
2022/10/23 14:05:51;;;;;;;10.45;7.97;;;;;;;;;;5075000;28;20089;-74
2022/10/23 14:08:17;;;;;;;10.40;7.20;;;;;;;;;;5075418;28;20051;-75
2022/10/23 14:10:43;;;;;;;14.63;12.20;;;;;;;;;;5067535;28;20076;-76
2022/10/23 14:13:09;;;;;;;19.98;14.60;;;;;;;;;;5035621;28;20033;-74
2022/10/23 14:15:35;;;;;;;13.60;9.75;;;;;;;;;;5032258;28;20056;-74
2022/10/23 14:18:01;;;;;;;10.75;9.02;;;;;;;;;;5036136;28;20017;-73
2022/10/23 14:20:28;;;;;;;21.10;17.02;;;;;;;;;;5035324;28;20030;-74
2022/10/23 14:22:54;;;;;;;14.75;11.57;;;;;;;;;;5035658;28;20053;-74
2022/10/23 14:25:20;;;;;;;17.23;11.95;;;;;;;;;;5035430;28;20021;-74
2022/10/23 14:27:46;;;;;;;16.13;11.40;;;;;;;;;;5035609;28;20029;-75
2022/10/23 14:30:13;;;;;;;15.98;12.20;;;;;;;;;;5035634;28;20056;-74
2022/10/23 14:32:39;;;;;;;17.40;11.38;;;;;;;;;;5032995;28;20025;-75
2022/10/23 14:35:06;;;;;;;16.08;7.60;;;;;;;;;;5034734;28;20025;-75